Time;durP1;ratioP1;P1;durP2;ratioP2;P2;SDS_P1;SDS_P2;PMS_P1;PMS_P2;Temp;Humidity;BMP_temperature;BMP_pressure;BME280_temperature;BME280_humidity;BME280_pressure;Samples;Min_cycle;Max_cycle;Signal;HPM_P1;HPM_P2
2023/04/10 00:01:19;;;;;;;23.17;14.77;;;;;;;11.56;100.00;98645.75;5029274;28;20044;-78
2023/04/10 00:04:04;;;;;;;24.67;14.98;;;;;;;12.24;100.00;98640.91;5033648;28;20068;-78
2023/04/10 00:06:48;;;;;;;24.90;15.23;;;;;;;11.98;100.00;98628.72;5031600;28;20068;-78
2023/04/10 00:09:33;;;;;;;26.38;16.23;;;;;;;12.19;100.00;98630.22;5028892;28;20064;-79
2023/04/10 00:12:17;;;;;;;25.80;14.88;;;;;;;12.03;100.00;98625.47;5029592;28;20410;-78
2023/04/10 00:15:01;;;;;;;28.85;16.73;;;;;;;12.08;100.00;98623.00;5029990;28;20083;-78
2023/04/10 00:17:45;;;;;;;26.98;16.08;;;;;;;12.34;100.00;98619.34;5029598;28;20091;-77
2023/04/10 00:20:29;;;;;;;29.77;16.50;;;;;;;12.34;100.00;98611.47;5030870;28;20056;-78
2023/04/10 00:23:13;;;;;;;29.05;16.30;;;;;;;12.19;100.00;98598.66;5034847;28;20075;-78
2023/04/10 00:25:58;;;;;;;25.60;15.55;;;;;;;12.27;100.00;98602.81;5030539;28;20102;-79
2023/04/10 00:28:42;;;;;;;25.35;16.45;;;;;;;12.11;100.00;98599.72;5027862;28;20403;-78
2023/04/10 00:31:26;;;;;;;30.63;17.67;;;;;;;12.14;100.00;98593.22;5031562;28;20512;-78
2023/04/10 00:34:10;;;;;;;25.98;16.55;;;;;;;12.14;100.00;98582.72;5029312;28;20045;-78
2023/04/10 00:36:55;;;;;;;33.90;17.83;;;;;;;12.03;100.00;98584.22;5029733;28;20102;-79
2023/04/10 00:39:39;;;;;;;27.60;16.50;;;;;;;12.08;100.00;98576.47;5029815;28;20399;-79
2023/04/10 00:42:23;;;;;;;30.42;17.92;;;;;;;12.16;100.00;98582.47;5032158;28;20095;-79
2023/04/10 00:45:08;;;;;;;33.20;17.60;;;;;;;11.93;100.00;98581.22;5032998;28;20056;-79
2023/04/10 00:47:53;;;;;;;29.77;17.48;;;;;;;12.00;100.00;98572.25;5029730;28;20095;-79
2023/04/10 00:50:37;;;;;;;29.85;17.25;;;;;;;11.99;100.00;98561.97;5033751;28;20498;-79
2023/04/10 00:53:22;;;;;;;31.42;17.45;;;;;;;11.96;100.00;98557.94;5035417;28;20529;-79
2023/04/10 00:56:06;;;;;;;29.50;18.30;;;;;;;11.96;100.00;98565.00;5027662;28;20064;-79
2023/04/10 00:58:51;;;;;;;32.60;18.75;;;;;;;11.98;100.00;98560.34;5026576;28;20072;-79
2023/04/10 01:01:35;;;;;;;31.65;17.95;;;;;;;12.07;100.00;98548.56;5027948;28;20044;-79
2023/04/10 01:04:21;;;;;;;32.70;18.30;;;;;;;11.94;100.00;98544.19;5027957;28;20110;-79
2023/04/10 01:07:31;;;;;;;33.13;19.17;;;;;;;11.78;100.00;98547.34;5027430;28;20040;-79
2023/04/10 01:11:06;;;;;;;38.15;20.25;;;;;;;11.71;100.00;98550.03;5028584;28;20084;-79
2023/04/10 01:14:18;;;;;;;35.85;20.55;;;;;;;11.49;100.00;98536.44;5012036;28;20486;-78
2023/04/10 01:17:25;;;;;;;36.28;20.58;;;;;;;11.44;100.00;98529.22;5032214;28;20072;-78
2023/04/10 01:20:13;;;;;;;34.25;20.95;;;;;;;11.41;100.00;98529.63;5027724;28;20502;-80
2023/04/10 01:23:26;;;;;;;39.75;20.98;;;;;;;11.51;100.00;98524.69;5036758;28;20095;-79
2023/04/10 01:26:11;;;;;;;40.50;21.08;;;;;;;11.38;100.00;98519.53;5030186;28;20399;-79
2023/04/10 01:29:25;;;;;;;38.38;21.25;;;;;;;11.38;100.00;98524.78;5031344;28;20048;-79
2023/04/10 01:32:18;;;;;;;36.92;21.17;;;;;;;11.37;100.00;98520.53;5022547;28;20847;-79
2023/04/10 01:35:06;;;;;;;40.67;22.33;;;;;;;11.36;100.00;98514.50;5026708;28;20110;-78
2023/04/10 01:37:52;;;;;;;38.85;23.10;;;;;;;11.40;100.00;98514.88;5030960;28;20319;-78
2023/04/10 01:40:38;;;;;;;38.85;22.58;;;;;;;11.35;100.00;98504.19;5031331;28;20051;-79
2023/04/10 01:43:25;;;;;;;43.63;22.50;;;;;;;11.46;100.00;98505.31;5031554;28;20082;-79
2023/04/10 01:46:11;;;;;;;41.42;22.85;;;;;;;11.38;100.00;98498.50;5041879;28;20055;-79
2023/04/10 01:48:57;;;;;;;37.75;22.33;;;;;;;11.29;100.00;98490.88;5036512;28;20553;-80
2023/04/10 01:51:43;;;;;;;49.13;23.95;;;;;;;11.34;100.00;98481.56;5047837;28;20540;-80
2023/04/10 01:54:29;;;;;;;40.53;23.77;;;;;;;11.15;100.00;98484.09;5031795;28;20118;-79
2023/04/10 01:57:15;;;;;;;43.90;24.02;;;;;;;11.42;100.00;98483.94;5032521;28;20100;-80
2023/04/10 01:59:59;;;;;;;48.13;24.92;;;;;;;11.14;100.00;98477.25;5034380;28;20119;-80
2023/04/10 02:02:43;;;;;;;40.17;24.10;;;;;;;11.24;100.00;98472.34;5028308;28;20498;-79
2023/04/10 02:05:35;;;;;;;42.88;24.23;;;;;;;11.41;100.00;98467.34;5035558;28;20071;-79
2023/04/10 02:08:33;;;;;;;43.00;23.58;;;;;;;11.37;100.00;98471.44;5033597;28;20091;-79
2023/04/10 02:11:35;;;;;;;43.78;23.33;;;;;;;11.32;100.00;98475.72;5035999;28;20040;-80
2023/04/10 02:14:21;;;;;;;43.22;22.90;;;;;;;11.41;100.00;98466.56;5029280;28;20094;-80
2023/04/10 02:17:08;;;;;;;39.88;22.83;;;;;;;10.85;100.00;98461.06;5047925;28;20418;-79
2023/04/10 02:19:54;;;;;;;39.08;23.05;;;;;;;10.89;100.00;98448.28;5038352;28;20095;-80
2023/04/10 02:22:42;;;;;;;38.42;22.83;;;;;;;10.60;100.00;98450.47;5032511;28;20048;-80
2023/04/10 02:25:30;;;;;;;41.47;23.67;;;;;;;10.76;100.00;98454.44;5033456;28;20040;-79
2023/04/10 02:28:14;;;;;;;43.83;24.83;;;;;;;10.58;100.00;98463.81;5041771;28;20103;-79
2023/04/10 02:30:59;;;;;;;37.17;22.50;;;;;;;10.81;100.00;98454.63;5034301;28;20131;-80
2023/04/10 02:33:43;;;;;;;42.60;24.23;;;;;;;10.64;100.00;98436.75;5041348;28;20398;-80
2023/04/10 02:36:27;;;;;;;39.83;23.85;;;;;;;10.75;100.00;98434.44;5033710;28;20048;-79
2023/04/10 02:39:11;;;;;;;40.33;22.02;;;;;;;10.81;100.00;98428.38;5030812;28;20044;-80
2023/04/10 02:41:55;;;;;;;42.80;25.00;;;;;;;10.80;100.00;98424.94;5034167;28;20080;-80
2023/04/10 02:44:40;;;;;;;39.92;22.85;;;;;;;10.86;100.00;98412.78;5036940;28;20433;-79
2023/04/10 02:47:24;;;;;;;39.42;23.45;;;;;;;10.76;100.00;98412.44;5046301;28;20099;-80
2023/04/10 02:50:09;;;;;;;38.80;23.73;;;;;;;10.78;100.00;98400.72;5045542;28;20056;-79
2023/04/10 02:52:53;;;;;;;40.78;22.73;;;;;;;10.69;100.00;98391.47;5046602;28;20048;-80
2023/04/10 02:55:38;;;;;;;34.45;21.70;;;;;;;10.74;100.00;98388.22;5037306;28;20449;-80
2023/04/10 02:58:22;;;;;;;40.90;22.50;;;;;;;10.65;100.00;98380.59;5038214;28;20175;-80
2023/04/10 03:01:06;;;;;;;34.85;20.63;;;;;;;10.67;100.00;98369.88;5044774;28;20564;-81
2023/04/10 03:03:50;;;;;;;39.42;22.05;;;;;;;10.77;100.00;98366.78;5031592;28;20107;-79
2023/04/10 03:06:34;;;;;;;37.38;20.15;;;;;;;10.79;100.00;98364.75;5035167;28;20505;-78
2023/04/10 03:09:18;;;;;;;37.05;18.98;;;;;;;11.21;100.00;98353.75;5031517;28;20039;-78
2023/04/10 03:12:02;;;;;;;30.42;18.45;;;;;;;11.27;100.00;98348.44;5034134;28;20502;-78
2023/04/10 03:14:46;;;;;;;29.67;18.13;;;;;;;11.46;100.00;98332.69;5044721;28;20068;-78
2023/04/10 03:17:30;;;;;;;37.75;20.05;;;;;;;11.31;100.00;98330.41;5043566;28;20076;-78
2023/04/10 03:20:14;;;;;;;33.92;20.35;;;;;;;11.34;100.00;98329.16;5036969;28;20442;-78
2023/04/10 03:22:59;;;;;;;32.13;20.13;;;;;;;11.27;100.00;98327.41;5030704;28;20036;-79
2023/04/10 03:25:43;;;;;;;32.95;19.40;;;;;;;11.33;100.00;98332.81;5032321;28;20525;-78
2023/04/10 03:28:28;;;;;;;32.15;19.45;;;;;;;11.44;100.00;98324.22;5036413;28;20044;-78
2023/04/10 03:31:12;;;;;;;36.17;20.30;;;;;;;11.37;100.00;98319.03;5036518;28;20454;-78
2023/04/10 03:33:56;;;;;;;36.80;21.00;;;;;;;11.55;100.00;98323.50;5037527;28;20075;-78
2023/04/10 03:36:40;;;;;;;36.90;20.90;;;;;;;11.56;100.00;98314.59;5032821;28;20059;-78
2023/04/10 03:39:25;;;;;;;40.60;21.58;;;;;;;11.64;100.00;98317.97;5040179;28;20080;-79
2023/04/10 03:42:09;;;;;;;37.97;21.08;;;;;;;11.64;100.00;98317.97;5033162;28;20673;-79
2023/04/10 03:44:52;;;;;;;38.22;21.95;;;;;;;11.61;100.00;98319.19;5033387;28;20044;-78
2023/04/10 03:47:36;;;;;;;36.80;20.33;;;;;;;11.63;100.00;98321.63;5035258;28;20043;-78
2023/04/10 03:50:21;;;;;;;36.42;21.67;;;;;;;11.74;100.00;98323.50;5044067;28;20094;-78
2023/04/10 03:53:05;;;;;;;36.75;21.33;;;;;;;11.74;100.00;98328.75;5045699;28;20075;-79
2023/04/10 03:55:49;;;;;;;39.25;22.85;;;;;;;11.57;100.00;98315.41;5042119;28;20040;-78
2023/04/10 03:58:33;;;;;;;42.05;23.63;;;;;;;11.47;100.00;98313.28;5040191;28;20056;-79
2023/04/10 04:01:17;;;;;;;43.42;23.58;;;;;;;11.51;100.00;98314.44;5046641;28;20107;-78
2023/04/10 04:04:02;;;;;;;38.92;23.00;;;;;;;11.67;100.00;98309.63;5037420;28;20044;-79
2023/04/10 04:06:47;;;;;;;38.65;23.33;;;;;;;11.64;100.00;98305.59;5037193;28;20060;-79
2023/04/10 04:09:31;;;;;;;42.15;24.45;;;;;;;11.71;100.00;98301.09;5037774;28;20052;-78
2023/04/10 04:12:15;;;;;;;43.90;25.63;;;;;;;11.69;100.00;98294.44;5043326;28;20079;-78
2023/04/10 04:14:59;;;;;;;46.92;24.60;;;;;;;11.73;100.00;98300.84;5032411;28;20107;-79
2023/04/10 04:17:45;;;;;;;47.35;24.80;;;;;;;11.82;100.00;98293.47;5030112;28;20733;-79
2023/04/10 04:20:29;;;;;;;49.35;26.25;;;;;;;11.77;100.00;98294.13;5038496;28;20589;-79
2023/04/10 04:23:13;;;;;;;49.03;26.38;;;;;;;11.68;100.00;98285.72;5030690;28;20068;-78
2023/04/10 04:25:57;;;;;;;49.30;25.92;;;;;;;11.67;100.00;98292.00;5030390;28;20044;-79
2023/04/10 04:28:41;;;;;;;48.63;26.08;;;;;;;11.77;100.00;98280.97;5029326;28;20083;-79
2023/04/10 04:31:31;;;;;;;49.85;27.20;;;;;;;11.73;100.00;98279.81;5044532;28;20091;-79
2023/04/10 04:34:15;;;;;;;50.90;27.65;;;;;;;11.70;100.00;98283.72;5038066;28;20511;-79
2023/04/10 04:37:00;;;;;;;45.78;25.10;;;;;;;11.65;100.00;98282.75;5029724;28;20040;-79
2023/04/10 04:39:44;;;;;;;50.05;25.90;;;;;;;11.61;100.00;98282.41;5046926;28;20093;-79
2023/04/10 04:42:29;;;;;;;46.35;25.58;;;;;;;11.71;100.00;98276.63;5043814;28;20402;-79
2023/04/10 04:45:14;;;;;;;45.00;24.98;;;;;;;11.53;100.00;98275.59;5034955;28;20094;-79
2023/04/10 04:47:58;;;;;;;42.15;24.50;;;;;;;11.69;100.00;98268.16;5044917;28;20083;-79
2023/04/10 04:50:42;;;;;;;51.10;26.63;;;;;;;11.73;100.00;98274.56;5037990;28;20044;-78
2023/04/10 04:53:26;;;;;;;48.00;25.17;;;;;;;11.66;100.00;98263.34;5040061;28;20043;-79
2023/04/10 04:56:11;;;;;;;44.13;24.25;;;;;;;11.76;100.00;98258.34;5038763;28;20088;-79
2023/04/10 04:58:54;;;;;;;46.42;25.33;;;;;;;11.93;100.00;98252.47;5037451;28;20106;-79
2023/04/10 05:01:38;;;;;;;43.35;23.83;;;;;;;11.85;100.00;98262.28;5033654;28;20092;-78
2023/04/10 05:04:22;;;;;;;44.17;24.77;;;;;;;11.85;100.00;98258.84;5030266;28;20116;-78
2023/04/10 05:07:06;;;;;;;42.00;24.10;;;;;;;11.90;100.00;98263.44;5036838;28;20056;-78
2023/04/10 05:09:53;;;;;;;45.13;24.10;;;;;;;11.86;100.00;98258.63;5048159;28;20094;-80
2023/04/10 05:12:40;;;;;;;48.35;25.35;;;;;;;11.84;100.00;98258.06;5030871;28;20132;-79
2023/04/10 05:15:24;;;;;;;41.83;23.38;;;;;;;11.93;100.00;98253.28;5035188;28;20438;-79
2023/04/10 05:18:08;;;;;;;40.95;22.80;;;;;;;11.86;100.00;98248.13;5037442;28;20040;-78
2023/04/10 05:20:52;;;;;;;44.85;25.00;;;;;;;11.90;100.00;98237.16;5030166;28;20072;-78
2023/04/10 05:23:36;;;;;;;40.03;22.08;;;;;;;12.01;100.00;98244.31;5039020;28;20044;-77
2023/04/10 05:26:20;;;;;;;38.85;23.70;;;;;;;11.95;100.00;98245.16;5036518;28;20040;-77
2023/04/10 05:29:04;;;;;;;40.97;22.75;;;;;;;11.88;100.00;98233.94;5034044;28;20052;-77
2023/04/10 05:31:48;;;;;;;43.70;22.35;;;;;;;11.83;100.00;98227.53;5033926;28;20132;-79
2023/04/10 05:34:32;;;;;;;40.70;21.48;;;;;;;11.91;100.00;98217.72;5031817;28;20057;-79
2023/04/10 05:37:16;;;;;;;39.58;22.00;;;;;;;11.85;100.00;98222.84;5034498;28;20138;-79
2023/04/10 05:40:00;;;;;;;32.63;19.92;;;;;;;11.95;100.00;98224.13;5036003;28;20547;-78
2023/04/10 05:42:44;;;;;;;35.50;20.33;;;;;;;11.96;100.00;98231.81;5028324;28;20427;-79
2023/04/10 05:45:29;;;;;;;34.83;19.95;;;;;;;11.85;100.00;98214.97;5031734;28;20048;-78
2023/04/10 05:48:12;;;;;;;36.30;18.55;;;;;;;11.99;100.00;98214.78;5039665;28;20102;-78
2023/04/10 05:50:57;;;;;;;30.60;17.65;;;;;;;11.99;100.00;98217.41;5037940;28;20054;-79
2023/04/10 05:53:41;;;;;;;29.65;17.50;;;;;;;12.01;100.00;98223.28;5039662;28;20051;-79
2023/04/10 05:56:25;;;;;;;31.90;18.08;;;;;;;11.96;100.00;98209.94;5037580;28;20044;-79
2023/04/10 05:59:11;;;;;;;30.85;18.15;;;;;;;12.14;100.00;98204.66;5042792;28;20036;-79
2023/04/10 06:01:56;;;;;;;33.65;19.70;;;;;;;12.04;100.00;98201.78;5034325;28;20048;-80
2023/04/10 06:04:40;;;;;;;59.97;29.67;;;;;;;12.08;100.00;98197.69;5041706;28;20136;-79
2023/04/10 06:07:24;;;;;;;31.52;19.85;;;;;;;12.24;100.00;98190.94;5050471;28;20048;-80
2023/04/10 06:10:09;;;;;;;27.98;19.20;;;;;;;12.27;100.00;98195.75;5044116;28;20122;-79
2023/04/10 06:12:53;;;;;;;33.42;18.30;;;;;;;12.31;100.00;98185.59;5046065;28;20162;-79
2023/04/10 06:15:37;;;;;;;33.95;20.77;;;;;;;12.39;100.00;98181.81;5035406;28;20095;-79
2023/04/10 06:18:21;;;;;;;33.15;19.35;;;;;;;12.47;100.00;98178.84;5043040;28;20565;-79
2023/04/10 06:21:06;;;;;;;25.83;16.52;;;;;;;12.58;100.00;98179.91;5037422;28;20099;-79
2023/04/10 06:23:50;;;;;;;27.05;16.20;;;;;;;12.69;100.00;98186.22;5042624;28;20048;-79
2023/04/10 06:26:33;;;;;;;24.48;15.45;;;;;;;12.77;100.00;98179.75;5047600;28;20095;-79
2023/04/10 06:29:17;;;;;;;22.73;14.68;;;;;;;12.73;100.00;98184.72;5046896;28;20040;-79
2023/04/10 06:32:01;;;;;;;22.77;13.77;;;;;;;12.84;100.00;98169.94;5049571;28;20150;-78
2023/04/10 06:34:46;;;;;;;20.65;13.50;;;;;;;12.90;100.00;98157.69;5034699;28;20087;-79
2023/04/10 06:37:31;;;;;;;18.83;11.90;;;;;;;12.90;100.00;98157.69;5050210;28;20055;-79
2023/04/10 06:40:15;;;;;;;17.92;12.32;;;;;;;13.04;100.00;98161.63;5039411;28;20043;-79
2023/04/10 06:43:00;;;;;;;17.05;12.15;;;;;;;13.11;100.00;98156.25;5039712;28;20064;-79
2023/04/10 06:45:44;;;;;;;18.67;12.07;;;;;;;13.25;100.00;98162.06;5037805;28;20573;-78
2023/04/10 06:48:28;;;;;;;17.40;11.13;;;;;;;13.37;100.00;98162.03;5036194;28;20075;-76
2023/04/10 06:51:12;;;;;;;15.82;10.95;;;;;;;13.27;100.00;98150.25;5037733;28;20094;-78
2023/04/10 06:53:56;;;;;;;15.00;10.10;;;;;;;13.46;100.00;98141.38;5044757;28;20052;-78
2023/04/10 06:56:40;;;;;;;15.90;9.15;;;;;;;13.57;100.00;98137.91;5033037;28;20040;-79
2023/04/10 06:59:24;;;;;;;11.77;8.80;;;;;;;13.53;100.00;98139.44;5043923;28;20047;-80
2023/04/10 07:02:08;;;;;;;12.50;7.97;;;;;;;13.70;100.00;98128.91;5037713;28;20059;-79
2023/04/10 07:04:52;;;;;;;11.05;7.63;;;;;;;13.60;100.00;98131.38;5041269;28;20057;-78
2023/04/10 07:07:36;;;;;;;10.18;7.03;;;;;;;13.69;100.00;98137.84;5043178;28;20075;-78
2023/04/10 07:10:20;;;;;;;11.13;7.75;;;;;;;13.75;100.00;98118.44;5038378;28;20055;-79
2023/04/10 07:13:04;;;;;;;10.23;7.43;;;;;;;13.85;100.00;98129.16;5033973;28;20036;-80
2023/04/10 07:15:48;;;;;;;9.63;6.40;;;;;;;13.98;100.00;98109.59;5030783;28;20657;-78
2023/04/10 07:18:32;;;;;;;8.57;6.30;;;;;;;13.87;100.00;98099.13;5038903;28;20044;-80
2023/04/10 07:21:17;;;;;;;9.07;6.13;;;;;;;14.07;100.00;98109.22;5035314;28;20722;-84
2023/04/10 07:24:00;;;;;;;7.00;5.43;;;;;;;13.96;100.00;98108.25;5038782;28;20095;-84
2023/04/10 07:26:45;;;;;;;8.00;5.85;;;;;;;14.08;100.00;98101.03;5039303;28;20043;-84
2023/04/10 07:29:29;;;;;;;7.75;5.40;;;;;;;14.25;100.00;98105.50;5042336;28;20063;-84
2023/04/10 07:32:14;;;;;;;7.43;5.25;;;;;;;14.28;100.00;98097.09;5044551;28;20041;-86
2023/04/10 07:34:58;;;;;;;8.15;4.95;;;;;;;14.30;100.00;98102.94;5039237;28;20040;-84
2023/04/10 07:37:43;;;;;;;11.32;5.90;;;;;;;14.32;100.00;98100.84;5039579;28;20072;-83
2023/04/10 07:40:26;;;;;;;7.25;4.80;;;;;;;14.22;100.00;98108.63;5039054;28;20107;-84
2023/04/10 07:43:10;;;;;;;7.38;4.60;;;;;;;14.30;100.00;98102.94;5035798;28;20450;-82
2023/04/10 07:45:55;;;;;;;8.77;4.50;;;;;;;14.16;100.00;98099.06;5036053;28;20175;-82
2023/04/10 07:48:39;;;;;;;7.78;4.80;;;;;;;14.34;100.00;98100.63;5043287;28;20167;-82
2023/04/10 07:51:24;;;;;;;6.97;5.13;;;;;;;14.36;100.00;98094.06;5033016;28;20044;-82
2023/04/10 07:54:08;;;;;;;7.40;4.50;;;;;;;14.59;100.00;98079.06;5036356;28;20482;-84
2023/04/10 07:56:52;;;;;;;9.32;5.22;;;;;;;14.84;100.00;98069.88;5035094;28;20080;-84
2023/04/10 07:59:36;;;;;;;6.07;4.80;;;;;;;15.16;100.00;98066.53;5038091;28;20423;-84
2023/04/10 08:02:20;;;;;;;5.35;4.43;;;;;;;15.47;100.00;98079.25;5040201;28;20109;-85
2023/04/10 08:05:05;;;;;;;7.57;4.68;;;;;;;15.65;100.00;98062.22;5038311;28;20116;-83
2023/04/10 08:07:49;;;;;;;6.35;4.80;;;;;;;15.61;100.00;98055.84;5036639;28;20132;-85
2023/04/10 08:10:36;;;;;;;6.20;4.78;;;;;;;15.69;100.00;98050.06;5042582;28;20399;-84
2023/04/10 08:13:20;;;;;;;5.63;4.63;;;;;;;15.60;100.00;98054.25;5037894;28;20158;-86
2023/04/10 08:16:05;;;;;;;6.10;4.97;;;;;;;15.58;100.00;98030.69;5039847;28;20052;-86
2023/04/10 08:18:50;;;;;;;6.78;4.88;;;;;;;15.66;100.00;98026.78;5038584;28;20517;-86
2023/04/10 08:21:34;;;;;;;5.88;4.63;;;;;;;15.75;100.00;98032.41;5038193;28;20126;-87
2023/04/10 08:24:20;;;;;;;6.75;4.40;;;;;;;15.75;100.00;98035.06;5038097;28;20040;-87
2023/04/10 08:27:04;;;;;;;6.15;4.30;;;;;;;15.57;100.00;98037.03;5039206;28;20091;-87
2023/04/10 08:29:48;;;;;;;5.20;4.00;;;;;;;15.47;100.00;98023.72;5039111;28;20043;-84
2023/04/10 08:32:32;;;;;;;6.15;3.78;;;;;;;15.16;100.00;98018.97;5040233;28;20043;-86
2023/04/10 08:35:16;;;;;;;4.63;3.53;;;;;;;15.23;100.00;98024.03;5040211;28;20067;-86
2023/04/10 08:38:00;;;;;;;5.95;3.75;;;;;;;15.01;100.00;98024.09;5034797;28;20040;-84
2023/04/10 08:40:44;;;;;;;4.35;3.05;;;;;;;15.11;100.00;98013.59;5032871;28;20563;-85
2023/04/10 08:43:28;;;;;;;4.03;3.25;;;;;;;15.41;100.00;98001.72;5039376;28;20123;-85
2023/04/10 08:46:13;;;;;;;5.25;3.45;;;;;;;15.38;100.00;98002.22;5036078;28;20060;-85
2023/04/10 08:49:04;;;;;;;5.68;2.72;;;;;;;15.54;100.00;97987.28;5041346;28;20103;-83
2023/04/10 08:51:56;;;;;;;2.88;2.47;;;;;;;15.63;100.00;97991.06;5042143;28;20032;-83
2023/04/10 08:54:46;;;;;;;2.38;2.08;;;;;;;15.63;100.00;97987.63;5036468;28;20088;-84
2023/04/10 08:57:31;;;;;;;6.82;2.25;;;;;;;15.37;100.00;97987.41;5037660;28;20110;-84
2023/04/10 09:00:16;;;;;;;5.55;2.00;;;;;;;15.42;100.00;97982.16;5030687;28;20400;-85
2023/04/10 09:03:03;;;;;;;4.35;2.10;;;;;;;15.21;100.00;97982.00;5037824;28;20037;-84
2023/04/10 09:05:47;;;;;;;9.05;2.08;;;;;;;14.89;100.00;97974.81;5035270;28;20091;-85
2023/04/10 09:08:33;;;;;;;5.07;2.28;;;;;;;15.14;100.00;97966.34;5039602;28;20406;-84
2023/04/10 09:11:17;;;;;;;6.50;2.10;;;;;;;14.88;100.00;97961.88;5034579;28;20044;-84
2023/04/10 09:14:01;;;;;;;4.45;2.05;;;;;;;15.22;100.00;97954.50;5038622;28;20052;-83
2023/04/10 09:16:45;;;;;;;4.10;1.67;;;;;;;15.57;100.00;97952.38;5037726;28;20071;-84
2023/04/10 09:19:33;;;;;;;4.90;2.00;;;;;;;15.96;100.00;97951.34;5036026;28;20083;-84
2023/04/10 09:22:27;;;;;;;2.78;1.60;;;;;;;15.81;100.00;97944.88;5038672;28;20043;-85
2023/04/10 09:25:30;;;;;;;3.90;1.65;;;;;;;15.68;100.00;97940.84;5032412;28;20115;-84
2023/04/10 09:28:15;;;;;;;4.68;1.90;;;;;;;15.41;100.00;97932.97;5038846;28;20064;-84
2023/04/10 09:30:59;;;;;;;2.40;1.80;;;;;;;15.37;100.00;97930.03;5035939;28;20122;-85
2023/04/10 09:33:45;;;;;;;3.95;1.55;;;;;;;15.29;100.00;97917.28;5041065;28;20395;-84
2023/04/10 09:36:29;;;;;;;3.63;1.35;;;;;;;15.18;100.00;97916.41;5040393;28;20096;-85
2023/04/10 09:39:14;;;;;;;3.30;1.65;;;;;;;15.33;100.00;97907.00;5045269;28;20051;-83
2023/04/10 09:41:58;;;;;;;3.42;1.63;;;;;;;15.37;100.00;97900.16;5040917;28;20072;-81
2023/04/10 09:44:42;;;;;;;2.72;1.40;;;;;;;15.69;100.00;97900.09;5046310;28;20495;-82
2023/04/10 09:47:27;;;;;;;4.22;1.67;;;;;;;16.47;100.00;97892.50;5041340;28;20044;-81
2023/04/10 09:50:11;;;;;;;3.42;1.35;;;;;;;16.26;100.00;97879.22;5040501;28;20117;-82
2023/04/10 09:52:56;;;;;;;2.05;1.05;;;;;;;16.44;100.00;97871.03;5042819;28;20392;-81
2023/04/10 09:55:42;;;;;;;3.03;1.20;;;;;;;16.53;100.00;97864.97;5043214;28;20039;-84
2023/04/10 09:58:27;;;;;;;2.10;1.10;;;;;;;16.26;100.00;97857.22;5037643;28;20143;-77
2023/04/10 10:01:12;;;;;;;3.05;1.25;;;;;;;16.24;100.00;97843.44;5038982;28;20044;-80
2023/04/10 10:04:00;;;;;;;2.47;1.25;;;;;;;15.89;100.00;97834.34;5043368;28;20036;-81
2023/04/10 10:06:44;;;;;;;4.07;1.40;;;;;;;16.04;100.00;97825.66;5047057;28;20371;-81
2023/04/10 10:09:29;;;;;;;3.55;1.75;;;;;;;16.02;100.00;97820.63;5046078;28;20509;-76
2023/04/10 10:12:33;;;;;;;3.17;2.08;;;;;;;15.99;100.00;97810.56;5043751;28;20120;-77
2023/04/10 10:15:39;;;;;;;7.35;1.90;;;;;;;15.96;100.00;97813.72;5040790;28;20059;-78
2023/04/10 10:18:50;;;;;;;4.10;2.00;;;;;;;16.12;100.00;97807.44;5035333;28;20084;-77
2023/04/10 10:21:35;;;;;;;5.20;2.30;;;;;;;15.83;100.00;97818.41;5040038;28;20070;-78
2023/04/10 10:24:21;;;;;;;6.03;2.08;;;;;;;16.30;100.00;97810.63;5044682;28;20115;-77
2023/04/10 10:27:08;;;;;;;2.83;1.70;;;;;;;16.67;100.00;97806.16;5044862;28;20068;-77
2023/04/10 10:29:53;;;;;;;5.88;2.40;;;;;;;17.32;100.00;97799.50;5044446;28;20051;-77
2023/04/10 10:32:39;;;;;;;6.32;2.70;;;;;;;17.81;100.00;97788.16;5045885;28;20040;-81
2023/04/10 10:35:29;;;;;;;6.03;2.22;;;;;;;17.70;100.00;97784.78;5044342;28;20071;-77
2023/04/10 10:38:15;;;;;;;5.40;2.28;;;;;;;17.84;100.00;97779.66;5042313;28;20040;-77
2023/04/10 10:41:15;;;;;;;7.38;2.33;;;;;;;17.96;100.00;97778.56;5043260;28;20109;-75
2023/04/10 10:44:36;;;;;;;7.28;2.40;;;;;;;17.51;100.00;97800.50;5038481;28;20079;-77
2023/04/10 10:47:26;;;;;;;9.55;2.38;;;;;;;15.62;97.56;97806.94;5041935;28;20103;-79
2023/04/10 10:50:11;;;;;;;6.32;2.05;;;;;;;15.06;99.21;97789.75;5045315;28;20091;-78
2023/04/10 10:52:56;;;;;;;6.45;2.25;;;;;;;14.56;99.92;97789.88;5048655;28;20574;-78
2023/04/10 10:55:40;;;;;;;6.50;2.17;;;;;;;14.02;100.00;97774.84;5038315;28;20040;-77
2023/04/10 10:58:46;;;;;;;6.40;2.03;;;;;;;13.64;100.00;97769.41;5040443;28;20048;-77
2023/04/10 11:01:30;;;;;;;6.82;1.90;;;;;;;13.76;100.00;97760.59;5039387;28;20048;-75
2023/04/10 11:04:41;;;;;;;6.55;2.60;;;;;;;13.84;100.00;97745.13;5043853;28;20039;-78
2023/04/10 11:08:03;;;;;;;7.70;1.98;;;;;;;14.35;100.00;97746.66;5041674;28;20048;-76
2023/04/10 11:11:06;;;;;;;11.20;2.60;;;;;;;14.11;100.00;97748.81;5040761;28;20048;-78
2023/04/10 11:13:55;;;;;;;10.85;2.03;;;;;;;13.67;100.00;97752.31;5039700;28;20091;-78
2023/04/10 11:16:40;;;;;;;7.68;2.25;;;;;;;13.41;100.00;97765.16;5039254;28;20099;-78
2023/04/10 11:19:24;;;;;;;7.80;2.38;;;;;;;13.18;100.00;97724.00;5048387;28;20044;-78
2023/04/10 11:22:09;;;;;;;7.15;2.10;;;;;;;14.27;100.00;97718.06;5042820;28;20068;-76
2023/04/10 11:24:59;;;;;;;16.48;7.38;;;;;;;14.80;97.91;97705.00;5042300;28;20075;-76
2023/04/10 11:27:51;;;;;;;18.67;8.32;;;;;;;14.98;100.00;97706.47;5045328;28;20519;-76
2023/04/10 11:30:35;;;;;;;13.57;6.68;;;;;;;14.88;100.00;97701.09;5045877;28;20502;-76
2023/04/10 11:33:19;;;;;;;12.35;5.13;;;;;;;14.59;100.00;97687.41;5038538;28;20051;-76
2023/04/10 11:36:05;;;;;;;7.05;2.72;;;;;;;14.37;100.00;97697.06;5043468;28;20120;-77
2023/04/10 11:39:07;;;;;;;7.43;2.80;;;;;;;14.06;100.00;97698.66;5045002;28;20448;-78
2023/04/10 11:41:53;;;;;;;14.23;4.30;;;;;;;13.54;100.00;97754.25;5038706;28;20044;-77
2023/04/10 11:44:42;;;;;;;11.40;4.78;;;;;;;13.79;100.00;97705.50;5041495;28;20048;-77
2023/04/10 11:47:25;;;;;;;11.45;5.20;;;;;;;14.04;100.00;97671.69;5039445;28;20403;-77
2023/04/10 11:50:10;;;;;;;17.08;8.70;;;;;;;14.30;100.00;97669.28;5041529;28;20044;-77
2023/04/10 11:52:54;;;;;;;14.57;5.65;;;;;;;13.91;100.00;97657.06;5041671;28;20549;-78
2023/04/10 11:55:39;;;;;;;16.52;7.25;;;;;;;14.00;100.00;97643.19;5040248;28;20151;-77
2023/04/10 11:58:25;;;;;;;21.17;10.85;;;;;;;14.17;100.00;97639.63;5041207;28;20136;-78
2023/04/10 12:01:13;;;;;;;25.77;11.43;;;;;;;14.00;100.00;97645.81;5044050;28;20453;-77
2023/04/10 12:03:58;;;;;;;28.02;9.00;;;;;;;13.52;100.00;97750.28;5044282;28;20079;-77
2023/04/10 12:06:44;;;;;;;4.65;1.65;;;;;;;11.50;100.00;97732.06;5043139;28;20036;-79
2023/04/10 12:09:28;;;;;;;5.75;2.58;;;;;;;11.21;100.00;97710.22;5043439;28;20040;-79
2023/04/10 12:12:13;;;;;;;6.40;1.70;;;;;;;11.47;100.00;97703.63;5039276;28;20037;-79
2023/04/10 12:14:57;;;;;;;4.95;1.15;;;;;;;11.37;100.00;97685.03;5047167;28;20102;-79
2023/04/10 12:17:42;;;;;;;3.00;1.13;;;;;;;11.40;100.00;97681.97;5038922;28;20076;-79
2023/04/10 12:20:27;;;;;;;5.85;1.88;;;;;;;11.70;100.00;97662.53;5040868;28;20095;-79
2023/04/10 12:23:12;;;;;;;3.17;1.83;;;;;;;12.30;100.00;97655.13;5041038;28;20123;-79
2023/04/10 12:26:13;;;;;;;6.95;2.40;;;;;;;12.97;100.00;97644.72;5042483;28;20044;-79
2023/04/10 12:28:58;;;;;;;8.73;2.17;;;;;;;13.68;100.00;97632.59;5044158;28;20140;-79
2023/04/10 12:31:42;;;;;;;6.90;2.10;;;;;;;14.41;100.00;97639.25;5041724;28;20052;-78
2023/04/10 12:34:26;;;;;;;6.78;2.05;;;;;;;14.40;100.00;97624.47;5040580;28;20047;-79
2023/04/10 12:37:10;;;;;;;6.80;2.10;;;;;;;14.52;100.00;97635.63;5040075;28;20080;-79
2023/04/10 12:40:04;;;;;;;5.05;1.17;;;;;;;13.56;100.00;97601.94;5043151;28;20105;-79
2023/04/10 12:42:48;;;;;;;5.07;1.45;;;;;;;13.41;100.00;97609.66;5037346;28;20053;-78
2023/04/10 12:45:50;;;;;;;1.45;0.90;;;;;;;13.33;100.00;97596.91;5036980;28;21031;-82